Nearby METAR Reports

 

KMTN - Baltimore/Martin, Maryland, USA
Distance from station: SSE 8mi, 13km
Updated: Wed, 26-Nov-2014 9:45am EST
Rain, Overcast
Rain, Overcast
 Wind from NE
Wind: NE 3 mph , 6 km/h
Temperature: 39°F , 4°C
Dew Point: 37°F , 3°C
Humidity: 93%
Barometer: 30.08 inHg , 1018.6 hPa
Summary: Rain
Clouds: Overcast
Visibility: 3 miles , 5 km
Cloud details: Mostly cloudy 800 ft
Overcast 1300 ft
2014/11/26 14:45 KMTN 261445Z 04003KT 3SM RA BKN008 OVC013 04/03 A3008
KDMH - Baltimore/Dwntwn, Maryland, USA
Distance from station: SW 12mi, 19km
Updated: Wed, 26-Nov-2014 9:54am EST

 
Temperature: 37°F , 3°C
Dew Point: 36°F , 2°C
Humidity: 93%
Barometer: 30.08 inHg , 1018.6 hPa
2014/11/26 14:54 KDMH 261454Z AUTO 03/02 A3008 RMK AO1 SLP185 P0015 60035 T00330017 58006
 
KBWI - Balto/Wash Intl, Maryland, USA
Distance from station: SSW 20mi, 33km
Updated: Wed, 26-Nov-2014 10:44am EST
Light snow, Rain, Mist, Overcast
Light snow, Rain, Mist, Overcast
 Wind from varies
Wind: varies 7 mph , 11 km/h
Temperature: 36°F , 2°C
Wind Chill: 30°F , -1°C
Dew Point: 34°F , 1°C
Humidity: 93%
Barometer: 30.04 inHg , 1017.3 hPa
Summary: Light snow, Rain, Mist
Clouds: Overcast
Visibility: 1 3/4 miles , 5 km
Cloud details: Mostly cloudy 700 ft
Overcast 1100 ft
2014/11/26 15:44 KBWI 261544Z VRB06KT 1 3/4SM -SNRA BR BKN007 OVC011 02/01 A3004 RMK AO2 SNB21 PRESENT WX -SN P0010
KDMW - Carroll Cnty, Maryland, USA
Distance from station: WNW 30mi, 48km
Updated: Wed, 26-Nov-2014 10:30am EST
Snow, Overcast
Snow, Overcast
 Wind from N
Wind: N 5 mph , 7 km/h
Temperature: 34°F , 1°C
Wind Chill: 29°F , -2°C
Dew Point: 30°F , -1°C
Humidity: 87%
Barometer: 30.06 inHg , 1017.9 hPa
Summary: Snow
Clouds: Overcast
Visibility: 1/4 mile , 2 km
Cloud details: Overcast 300 ft
2014/11/26 15:30 KDMW 261530Z AUTO 01004KT 1/4SM SN OVC003 01/M01 A3006 RMK AO2 LTG DSNT S P0004
 
KNAK - Annapolis/Naval, Maryland, USA
Distance from station: S 30mi, 48km
Updated: Wed, 26-Nov-2014 10:26am EST
Light rain, Mist, Overcast
Light rain, Mist, Overcast
 Wind from N
Wind: N 5 mph , 7 km/h
Temperature: 39°F , 4°C
Wind Chill: 35°F , 2°C
Dew Point: 36°F , 2°C
Humidity: 87%
Barometer: 30.06 inHg , 1017.9 hPa
Summary: Light rain, Mist
Clouds: Overcast
Visibility: 2 miles , 3 km
Cloud details: Overcast 1100 ft
2014/11/26 15:26 KNAK 261526Z AUTO 01004KT 2SM -RA BR OVC011 04/02 A3006 RMK AO2 P0007 T00390022
KW29 - Stevensville, Maryland, USA
Distance from station: SSE 31mi, 50km
Updated: Wed, 26-Nov-2014 10:28am EST
Rain
Rain
 Wind from N
Wind: N 6 mph , 9 km/h
Temperature: 37°F , 3°C
Wind Chill: 32°F , 0°C
Dew Point: 36°F , 2°C
Humidity: 93%
Barometer: 30.05 inHg , 1017.6 hPa
Summary: Rain
Visibility: 3 miles , 5 km
2014/11/26 15:28 KW29 261528Z AUTO 01005KT 3SM RA 03/02 A3005 RMK AO1
 
KCGS - College Park, Maryland, USA
Distance from station: SW 38mi, 61km
Updated: Wed, 26-Nov-2014 10:25am EST
Overcast
Overcast
 Wind from N
Wind: N 9 mph , 15 km/h
Temperature: 37°F , 3°C
Wind Chill: 30°F , -1°C
Dew Point: 36°F , 2°C
Humidity: 93%
Barometer: 30.07 inHg , 1018.3 hPa
Clouds: Overcast
Visibility: 5 miles , 8 km
Cloud details: Overcast 1000 ft
2014/11/26 15:25 KCGS 261525Z AUTO 01008KT 5SM OVC010 03/02 A3007 RMK AO1
KGAI - Gaithersburg, Maryland, USA
Distance from station: WSW 40mi, 65km
Updated: Wed, 26-Nov-2014 10:35am EST
Overcast
Overcast
 Wind from calm
Wind: Calm
Temperature: 34°F , 1°C
Dew Point: 30°F , -1°C
Humidity: 87%
Barometer: 30.10 inHg , 1019.3 hPa
Clouds: Overcast
Visibility: 1 1/2 miles , 2 km
Cloud details: Overcast 400 ft
2014/11/26 15:35 KGAI 261535Z 00000KT 1 1/2SM OVC004 01/M01 A3010 RMK AO1 P0006
 
KTHV - York, Pennsylvania, USA
Distance from station: NNW 40mi, 65km
Updated: Wed, 26-Nov-2014 9:53am EST
Light snow, Mist, Overcast
Light snow, Mist, Overcast
 Wind from NE
Wind: NE 3 mph , 6 km/h
Temperature: 34°F , 1°C
Dew Point: 32°F , 0°C
Humidity: 93%
Barometer: 30.09 inHg , 1019 hPa
Summary: Light snow, Mist
Clouds: Overcast
Visibility: 3/4 mile , 5 km
Cloud details: Overcast 300 ft
2014/11/26 14:53 KTHV 261453Z AUTO 05003KT 3/4SM -SN BR OVC003 01/00 A3009 RMK AO2 RAE03SNB03 SLP197 P0003 60019 T00060000 56001
KFDK - Frederick, Maryland, USA
Distance from station: W 47mi, 75km
Updated: Wed, 26-Nov-2014 9:45am EST
Snow, Overcast
Snow, Overcast
 Wind from calm
Wind: Calm
Temperature: 37°F , 3°C
Dew Point: 32°F , 0°C
Humidity: 81%
Barometer: 30.13 inHg , 1020.3 hPa
Summary: Snow
Clouds: Overcast
Visibility: 2 1/2 miles , 2 km
Cloud details: Overcast 900 ft
2014/11/26 14:45 KFDK 261445Z 00000KT 2 1/2SM SN OVC009 03/00 A3013
 
KESN - Easton/Newnam, Maryland, USA
Distance from station: SSE 48mi, 78km
Updated: Wed, 26-Nov-2014 9:50am EST
Light rain, Mist, Overcast
Light rain, Mist, Overcast
 Wind from NE
Wind: NE 14 mph , 22 km/h, Gust: 21 mph , 33 km/h
Temperature: 41°F , 5°C
Wind Chill: 33°F , 1°C
Dew Point: 41°F , 5°C
Humidity: 100%
Barometer: 30.04 inHg , 1017.3 hPa
Summary: Light rain, Mist
Clouds: Overcast
Visibility: 2 miles , 3 km
Cloud details: Mostly cloudy 600 ft
Overcast 1000 ft
2014/11/26 14:50 KESN 261450Z 04012G18KT 2SM -RA BR BKN006 OVC010 05/05 A3004
KDCA - Washington/Natl, Washington D.c., USA
Distance from station: SW 49mi, 79km
Updated: Wed, 26-Nov-2014 9:52am EST
Rain, Overcast
Rain, Overcast
 Wind from NNE
Wind: NNE 17 mph , 28 km/h
Temperature: 43°F , 6°C
Wind Chill: 35°F , 2°C
Dew Point: 36°F , 2°C
Humidity: 76%
Barometer: 30.07 inHg , 1018.3 hPa
Summary: Rain
Clouds: Overcast
Visibility: 4 miles , 6 km
Cloud details: Few Clouds 1000 ft
Mostly cloudy 1600 ft
Overcast 2300 ft
2014/11/26 14:52 KDCA 261452Z 03015KT 4SM RA FEW010 BKN016 OVC023 06/02 A3007 RMK AO2 SLP181 P0014 60034 T00560017 58008
 
KLNS - Lancaster, Pennsylvania, USA
Distance from station: N 49mi, 79km
Updated: Wed, 26-Nov-2014 10:05am EST
Light snow, Mist, Overcast
Light snow, Mist, Overcast
 Wind from ENE
Wind: ENE 5 mph , 7 km/h
Temperature: 34°F , 1°C
Wind Chill: 29°F , -2°C
Dew Point: 32°F , 0°C
Humidity: 93%
Barometer: 30.09 inHg , 1019 hPa
Summary: Light snow, Mist
Clouds: Overcast
Visibility: 1 1/2 miles , 2 km
Cloud details: Partly cloudy 500 ft
Mostly cloudy 900 ft
Overcast 2600 ft
2014/11/26 15:05 KLNS 261505Z 07004KT 1 1/2SM -SN BR SCT005 BKN009 OVC026 01/00 A3009 RMK AO2 P0004 T00060000
KILG - Wilmington, Delaware, USA
Distance from station: ENE 50mi, 81km
Updated: Wed, 26-Nov-2014 9:59am EST
Rain, Mist, Overcast
Rain, Mist, Overcast
 Wind from NNE
Wind: NNE 12 mph , 19 km/h
Temperature: 37°F , 3°C
Wind Chill: 29°F , -2°C
Dew Point: 36°F , 2°C
Humidity: 93%
Barometer: 30.07 inHg , 1018.3 hPa
Summary: Rain, Mist
Clouds: Overcast
Visibility: 2 1/2 miles , 2 km
Cloud details: Partly cloudy 500 ft
Mostly cloudy 900 ft
Overcast 1400 ft
2014/11/26 14:59 KILG 261459Z 03010KT 2 1/2SM RA BR SCT005 BKN009 OVC014 03/02 A3007 RMK AO2 PRESFR P0002 T00330017